sensor_id;sensor_type;location;lat;lon;timestamp;P1;durP1;ratioP1;P2;durP2;ratioP2
78508;SDS011;67802;50.846;7.958;2023-05-10T00:01:32;2.40;;;1.20;;
78508;SDS011;67802;50.846;7.958;2023-05-10T00:03:58;2.72;;;1.30;;
78508;SDS011;67802;50.846;7.958;2023-05-10T00:06:23;2.28;;;1.17;;
78508;SDS011;67802;50.846;7.958;2023-05-10T00:08:49;2.65;;;1.23;;
78508;SDS011;67802;50.846;7.958;2023-05-10T00:11:14;2.50;;;1.20;;
78508;SDS011;67802;50.846;7.958;2023-05-10T00:13:39;3.40;;;1.20;;
78508;SDS011;67802;50.846;7.958;2023-05-10T00:16:05;2.60;;;1.00;;
78508;SDS011;67802;50.846;7.958;2023-05-10T00:18:30;2.53;;;1.15;;
78508;SDS011;67802;50.846;7.958;2023-05-10T00:20:56;2.63;;;1.05;;
78508;SDS011;67802;50.846;7.958;2023-05-10T00:23:21;2.17;;;1.10;;
78508;SDS011;67802;50.846;7.958;2023-05-10T00:25:46;1.45;;;0.93;;
78508;SDS011;67802;50.846;7.958;2023-05-10T00:28:11;2.10;;;1.00;;
78508;SDS011;67802;50.846;7.958;2023-05-10T00:30:37;2.05;;;1.00;;
78508;SDS011;67802;50.846;7.958;2023-05-10T00:33:02;2.08;;;1.00;;
78508;SDS011;67802;50.846;7.958;2023-05-10T00:35:27;2.05;;;0.95;;
78508;SDS011;67802;50.846;7.958;2023-05-10T00:37:53;3.00;;;1.05;;
78508;SDS011;67802;50.846;7.958;2023-05-10T00:40:18;1.92;;;0.90;;
78508;SDS011;67802;50.846;7.958;2023-05-10T00:42:44;2.50;;;1.10;;
78508;SDS011;67802;50.846;7.958;2023-05-10T00:45:09;1.15;;;0.80;;
78508;SDS011;67802;50.846;7.958;2023-05-10T00:47:34;1.98;;;1.00;;
78508;SDS011;67802;50.846;7.958;2023-05-10T00:50:00;2.35;;;1.05;;
78508;SDS011;67802;50.846;7.958;2023-05-10T00:52:26;1.75;;;1.08;;
78508;SDS011;67802;50.846;7.958;2023-05-10T00:54:53;2.13;;;1.10;;
78508;SDS011;67802;50.846;7.958;2023-05-10T00:57:19;1.65;;;0.95;;
78508;SDS011;67802;50.846;7.958;2023-05-10T00:59:45;2.50;;;1.10;;
78508;SDS011;67802;50.846;7.958;2023-05-10T01:02:10;1.75;;;0.95;;
78508;SDS011;67802;50.846;7.958;2023-05-10T01:04:36;2.13;;;1.00;;
78508;SDS011;67802;50.846;7.958;2023-05-10T01:07:02;2.17;;;1.00;;
78508;SDS011;67802;50.846;7.958;2023-05-10T01:09:28;1.52;;;0.90;;
78508;SDS011;67802;50.846;7.958;2023-05-10T01:11:53;1.52;;;0.88;;
78508;SDS011;67802;50.846;7.958;2023-05-10T01:14:20;2.17;;;0.80;;
78508;SDS011;67802;50.846;7.958;2023-05-10T01:16:46;1.85;;;0.90;;
78508;SDS011;67802;50.846;7.958;2023-05-10T01:35:42;1.50;;;0.77;;
78508;SDS011;67802;50.846;7.958;2023-05-10T01:41:10;1.60;;;0.80;;
78508;SDS011;67802;50.846;7.958;2023-05-10T01:43:40;0.60;;;0.60;;
78508;SDS011;67802;50.846;7.958;2023-05-10T01:46:17;1.50;;;0.90;;
78508;SDS011;67802;50.846;7.958;2023-05-10T01:48:51;0.93;;;0.70;;
78508;SDS011;67802;50.846;7.958;2023-05-10T01:51:25;0.95;;;0.63;;
78508;SDS011;67802;50.846;7.958;2023-05-10T01:53:57;1.02;;;0.80;;
78508;SDS011;67802;50.846;7.958;2023-05-10T01:56:26;1.20;;;0.70;;
78508;SDS011;67802;50.846;7.958;2023-05-10T01:58:52;1.25;;;0.80;;
78508;SDS011;67802;50.846;7.958;2023-05-10T02:01:20;1.65;;;0.73;;
78508;SDS011;67802;50.846;7.958;2023-05-10T02:03:46;1.67;;;0.80;;
78508;SDS011;67802;50.846;7.958;2023-05-10T02:06:14;1.00;;;0.70;;
78508;SDS011;67802;50.846;7.958;2023-05-10T02:08:43;1.23;;;0.65;;
78508;SDS011;67802;50.846;7.958;2023-05-10T02:11:10;0.90;;;0.60;;
78508;SDS011;67802;50.846;7.958;2023-05-10T02:13:38;0.90;;;0.60;;
78508;SDS011;67802;50.846;7.958;2023-05-10T02:16:05;1.85;;;0.80;;
78508;SDS011;67802;50.846;7.958;2023-05-10T02:18:32;1.27;;;0.70;;
78508;SDS011;67802;50.846;7.958;2023-05-10T02:20:59;2.47;;;0.88;;
78508;SDS011;67802;50.846;7.958;2023-05-10T02:23:26;1.20;;;0.80;;
78508;SDS011;67802;50.846;7.958;2023-05-10T02:25:54;1.98;;;0.95;;
78508;SDS011;67802;50.846;7.958;2023-05-10T02:28:22;1.67;;;0.70;;
78508;SDS011;67802;50.846;7.958;2023-05-10T02:30:50;1.23;;;0.70;;
78508;SDS011;67802;50.846;7.958;2023-05-10T02:33:16;1.98;;;0.82;;
78508;SDS011;67802;50.846;7.958;2023-05-10T02:35:42;0.93;;;0.70;;
78508;SDS011;67802;50.846;7.958;2023-05-10T02:38:07;1.20;;;0.60;;
78508;SDS011;67802;50.846;7.958;2023-05-10T02:40:34;0.80;;;0.60;;
78508;SDS011;67802;50.846;7.958;2023-05-10T02:43:02;1.55;;;0.75;;
78508;SDS011;67802;50.846;7.958;2023-05-10T02:45:29;0.80;;;0.60;;
78508;SDS011;67802;50.846;7.958;2023-05-10T02:47:57;0.98;;;0.68;;
78508;SDS011;67802;50.846;7.958;2023-05-10T02:50:25;1.80;;;0.85;;
78508;SDS011;67802;50.846;7.958;2023-05-10T02:52:54;1.08;;;0.70;;
78508;SDS011;67802;50.846;7.958;2023-05-10T02:55:38;1.42;;;0.75;;
78508;SDS011;67802;50.846;7.958;2023-05-10T02:58:06;0.90;;;0.60;;
78508;SDS011;67802;50.846;7.958;2023-05-10T03:00:32;0.85;;;0.57;;
78508;SDS011;67802;50.846;7.958;2023-05-10T03:02:57;0.73;;;0.60;;
78508;SDS011;67802;50.846;7.958;2023-05-10T03:05:23;1.10;;;0.73;;
78508;SDS011;67802;50.846;7.958;2023-05-10T03:07:48;1.05;;;0.60;;
78508;SDS011;67802;50.846;7.958;2023-05-10T03:10:14;0.82;;;0.65;;
78508;SDS011;67802;50.846;7.958;2023-05-10T03:15:37;1.90;;;0.80;;
78508;SDS011;67802;50.846;7.958;2023-05-10T03:18:56;0.77;;;0.70;;
78508;SDS011;67802;50.846;7.958;2023-05-10T03:21:15;1.15;;;0.70;;
78508;SDS011;67802;50.846;7.958;2023-05-10T03:23:44;1.73;;;0.70;;
78508;SDS011;67802;50.846;7.958;2023-05-10T03:26:20;1.40;;;0.70;;
78508;SDS011;67802;50.846;7.958;2023-05-10T03:28:50;1.05;;;0.60;;
78508;SDS011;67802;50.846;7.958;2023-05-10T03:31:17;0.88;;;0.68;;
78508;SDS011;67802;50.846;7.958;2023-05-10T03:33:50;0.95;;;0.65;;
78508;SDS011;67802;50.846;7.958;2023-05-10T03:36:16;0.52;;;0.50;;
78508;SDS011;67802;50.846;7.958;2023-05-10T03:38:42;1.13;;;0.70;;
78508;SDS011;67802;50.846;7.958;2023-05-10T03:41:07;0.73;;;0.50;;
78508;SDS011;67802;50.846;7.958;2023-05-10T03:43:33;1.15;;;0.70;;
78508;SDS011;67802;50.846;7.958;2023-05-10T03:45:58;0.60;;;0.60;;
78508;SDS011;67802;50.846;7.958;2023-05-10T03:48:23;0.70;;;0.63;;
78508;SDS011;67802;50.846;7.958;2023-05-10T03:50:49;0.73;;;0.60;;
78508;SDS011;67802;50.846;7.958;2023-05-10T03:53:14;0.90;;;0.63;;
78508;SDS011;67802;50.846;7.958;2023-05-10T03:55:40;0.90;;;0.70;;
78508;SDS011;67802;50.846;7.958;2023-05-10T03:58:05;1.02;;;0.68;;
78508;SDS011;67802;50.846;7.958;2023-05-10T04:00:31;1.50;;;0.60;;
78508;SDS011;67802;50.846;7.958;2023-05-10T04:02:56;0.60;;;0.57;;
78508;SDS011;67802;50.846;7.958;2023-05-10T04:05:21;0.68;;;0.50;;
78508;SDS011;67802;50.846;7.958;2023-05-10T04:07:47;0.55;;;0.50;;
78508;SDS011;67802;50.846;7.958;2023-05-10T04:10:14;1.05;;;0.70;;
78508;SDS011;67802;50.846;7.958;2023-05-10T04:12:41;0.75;;;0.50;;
78508;SDS011;67802;50.846;7.958;2023-05-10T04:15:06;2.08;;;0.85;;
78508;SDS011;67802;50.846;7.958;2023-05-10T04:17:32;0.82;;;0.60;;
78508;SDS011;67802;50.846;7.958;2023-05-10T04:19:57;0.85;;;0.57;;
78508;SDS011;67802;50.846;7.958;2023-05-10T04:22:23;0.82;;;0.70;;
78508;SDS011;67802;50.846;7.958;2023-05-10T04:24:48;0.50;;;0.50;;
78508;SDS011;67802;50.846;7.958;2023-05-10T04:27:13;0.77;;;0.50;;
78508;SDS011;67802;50.846;7.958;2023-05-10T04:29:39;0.50;;;0.40;;
78508;SDS011;67802;50.846;7.958;2023-05-10T04:32:04;1.35;;;0.60;;
78508;SDS011;67802;50.846;7.958;2023-05-10T04:34:29;0.65;;;0.60;;
78508;SDS011;67802;50.846;7.958;2023-05-10T04:36:55;1.35;;;0.80;;
78508;SDS011;67802;50.846;7.958;2023-05-10T04:39:20;1.48;;;0.70;;
78508;SDS011;67802;50.846;7.958;2023-05-10T04:41:45;1.15;;;0.65;;
78508;SDS011;67802;50.846;7.958;2023-05-10T04:44:11;1.38;;;0.70;;
78508;SDS011;67802;50.846;7.958;2023-05-10T04:46:36;0.77;;;0.65;;
78508;SDS011;67802;50.846;7.958;2023-05-10T04:49:02;0.55;;;0.50;;
78508;SDS011;67802;50.846;7.958;2023-05-10T04:51:27;0.55;;;0.52;;
78508;SDS011;67802;50.846;7.958;2023-05-10T04:53:53;0.90;;;0.50;;
78508;SDS011;67802;50.846;7.958;2023-05-10T04:56:18;0.40;;;0.40;;
78508;SDS011;67802;50.846;7.958;2023-05-10T04:58:43;0.65;;;0.60;;
78508;SDS011;67802;50.846;7.958;2023-05-10T05:01:09;0.70;;;0.50;;
78508;SDS011;67802;50.846;7.958;2023-05-10T05:03:36;1.20;;;0.60;;
78508;SDS011;67802;50.846;7.958;2023-05-10T05:06:02;1.27;;;0.77;;
78508;SDS011;67802;50.846;7.958;2023-05-10T05:08:27;0.90;;;0.65;;
78508;SDS011;67802;50.846;7.958;2023-05-10T05:10:53;0.50;;;0.50;;
78508;SDS011;67802;50.846;7.958;2023-05-10T05:13:18;2.13;;;0.70;;
78508;SDS011;67802;50.846;7.958;2023-05-10T05:15:43;1.10;;;0.70;;
78508;SDS011;67802;50.846;7.958;2023-05-10T05:18:09;0.40;;;0.40;;
78508;SDS011;67802;50.846;7.958;2023-05-10T05:20:34;0.60;;;0.40;;
78508;SDS011;67802;50.846;7.958;2023-05-10T05:23:00;0.90;;;0.70;;
78508;SDS011;67802;50.846;7.958;2023-05-10T05:25:25;0.88;;;0.50;;
78508;SDS011;67802;50.846;7.958;2023-05-10T05:27:51;0.83;;;0.50;;
78508;SDS011;67802;50.846;7.958;2023-05-10T05:30:16;0.63;;;0.63;;
78508;SDS011;67802;50.846;7.958;2023-05-10T05:32:41;1.05;;;0.68;;
78508;SDS011;67802;50.846;7.958;2023-05-10T05:35:07;0.70;;;0.60;;
78508;SDS011;67802;50.846;7.958;2023-05-10T05:37:32;0.50;;;0.50;;
78508;SDS011;67802;50.846;7.958;2023-05-10T05:39:58;1.02;;;0.63;;
78508;SDS011;67802;50.846;7.958;2023-05-10T05:42:23;1.10;;;0.65;;
78508;SDS011;67802;50.846;7.958;2023-05-10T05:44:48;1.10;;;0.60;;
78508;SDS011;67802;50.846;7.958;2023-05-10T05:47:13;0.73;;;0.60;;
78508;SDS011;67802;50.846;7.958;2023-05-10T05:49:39;0.63;;;0.55;;
78508;SDS011;67802;50.846;7.958;2023-05-10T05:52:04;0.85;;;0.65;;
78508;SDS011;67802;50.846;7.958;2023-05-10T05:54:30;0.88;;;0.65;;
78508;SDS011;67802;50.846;7.958;2023-05-10T05:56:56;0.65;;;0.52;;
78508;SDS011;67802;50.846;7.958;2023-05-10T05:59:22;0.80;;;0.65;;
78508;SDS011;67802;50.846;7.958;2023-05-10T06:01:48;0.70;;;0.70;;
78508;SDS011;67802;50.846;7.958;2023-05-10T06:04:13;0.50;;;0.50;;
78508;SDS011;67802;50.846;7.958;2023-05-10T06:06:39;1.33;;;0.50;;
78508;SDS011;67802;50.846;7.958;2023-05-10T06:09:04;0.50;;;0.50;;
78508;SDS011;67802;50.846;7.958;2023-05-10T06:11:30;0.95;;;0.52;;
78508;SDS011;67802;50.846;7.958;2023-05-10T06:13:57;1.08;;;0.73;;
78508;SDS011;67802;50.846;7.958;2023-05-10T06:16:22;0.70;;;0.50;;
78508;SDS011;67802;50.846;7.958;2023-05-10T06:18:48;0.93;;;0.65;;
78508;SDS011;67802;50.846;7.958;2023-05-10T06:21:13;1.20;;;0.70;;
78508;SDS011;67802;50.846;7.958;2023-05-10T06:23:39;0.73;;;0.52;;
78508;SDS011;67802;50.846;7.958;2023-05-10T06:26:05;1.17;;;0.65;;
78508;SDS011;67802;50.846;7.958;2023-05-10T06:28:30;1.33;;;0.80;;
78508;SDS011;67802;50.846;7.958;2023-05-10T06:30:57;1.25;;;0.77;;
78508;SDS011;67802;50.846;7.958;2023-05-10T06:33:22;0.93;;;0.70;;
78508;SDS011;67802;50.846;7.958;2023-05-10T06:35:47;1.00;;;0.70;;
78508;SDS011;67802;50.846;7.958;2023-05-10T06:38:13;0.90;;;0.57;;
78508;SDS011;67802;50.846;7.958;2023-05-10T06:40:41;1.05;;;0.50;;
78508;SDS011;67802;50.846;7.958;2023-05-10T06:43:07;0.77;;;0.60;;
78508;SDS011;67802;50.846;7.958;2023-05-10T06:45:32;0.60;;;0.60;;
78508;SDS011;67802;50.846;7.958;2023-05-10T06:47:57;0.77;;;0.60;;
78508;SDS011;67802;50.846;7.958;2023-05-10T06:50:22;0.70;;;0.60;;
78508;SDS011;67802;50.846;7.958;2023-05-10T06:52:48;1.35;;;0.80;;
78508;SDS011;67802;50.846;7.958;2023-05-10T06:55:13;1.20;;;0.70;;
78508;SDS011;67802;50.846;7.958;2023-05-10T06:57:38;1.42;;;0.70;;
78508;SDS011;67802;50.846;7.958;2023-05-10T07:00:04;1.15;;;0.73;;
78508;SDS011;67802;50.846;7.958;2023-05-10T07:02:30;1.50;;;0.77;;
78508;SDS011;67802;50.846;7.958;2023-05-10T07:04:55;0.95;;;0.70;;
78508;SDS011;67802;50.846;7.958;2023-05-10T07:07:21;0.65;;;0.60;;
78508;SDS011;67802;50.846;7.958;2023-05-10T07:09:46;1.05;;;0.60;;
78508;SDS011;67802;50.846;7.958;2023-05-10T07:12:12;0.77;;;0.50;;
78508;SDS011;67802;50.846;7.958;2023-05-10T07:14:37;1.37;;;0.67;;
78508;SDS011;67802;50.846;7.958;2023-05-10T07:17:02;1.92;;;0.80;;
78508;SDS011;67802;50.846;7.958;2023-05-10T07:19:28;1.83;;;0.75;;
78508;SDS011;67802;50.846;7.958;2023-05-10T07:21:54;0.98;;;0.70;;
78508;SDS011;67802;50.846;7.958;2023-05-10T07:24:20;0.93;;;0.73;;
78508;SDS011;67802;50.846;7.958;2023-05-10T07:26:45;1.05;;;0.70;;
78508;SDS011;67802;50.846;7.958;2023-05-10T07:29:11;1.45;;;0.70;;
78508;SDS011;67802;50.846;7.958;2023-05-10T07:31:36;1.33;;;0.80;;
78508;SDS011;67802;50.846;7.958;2023-05-10T07:34:02;1.98;;;0.98;;
78508;SDS011;67802;50.846;7.958;2023-05-10T07:36:27;1.20;;;0.70;;
78508;SDS011;67802;50.846;7.958;2023-05-10T07:38:52;1.77;;;0.80;;
78508;SDS011;67802;50.846;7.958;2023-05-10T07:41:18;1.83;;;0.90;;
78508;SDS011;67802;50.846;7.958;2023-05-10T07:43:43;1.30;;;0.80;;
78508;SDS011;67802;50.846;7.958;2023-05-10T07:46:09;2.28;;;0.93;;
78508;SDS011;67802;50.846;7.958;2023-05-10T07:48:36;1.58;;;0.90;;
78508;SDS011;67802;50.846;7.958;2023-05-10T07:51:01;1.45;;;0.90;;
78508;SDS011;67802;50.846;7.958;2023-05-10T07:53:27;1.50;;;0.80;;
78508;SDS011;67802;50.846;7.958;2023-05-10T07:55:54;3.17;;;0.93;;
78508;SDS011;67802;50.846;7.958;2023-05-10T07:58:22;2.53;;;1.10;;
78508;SDS011;67802;50.846;7.958;2023-05-10T08:00:47;2.10;;;0.90;;
78508;SDS011;67802;50.846;7.958;2023-05-10T08:03:14;1.73;;;0.90;;
78508;SDS011;67802;50.846;7.958;2023-05-10T08:05:39;2.33;;;0.98;;
78508;SDS011;67802;50.846;7.958;2023-05-10T08:08:05;1.70;;;0.80;;
78508;SDS011;67802;50.846;7.958;2023-05-10T08:10:30;1.75;;;0.90;;
78508;SDS011;67802;50.846;7.958;2023-05-10T08:12:56;2.53;;;1.00;;
78508;SDS011;67802;50.846;7.958;2023-05-10T08:15:23;2.22;;;1.10;;
78508;SDS011;67802;50.846;7.958;2023-05-10T08:17:48;2.58;;;1.00;;
78508;SDS011;67802;50.846;7.958;2023-05-10T08:20:13;2.35;;;1.10;;
78508;SDS011;67802;50.846;7.958;2023-05-10T08:22:41;4.38;;;1.40;;
78508;SDS011;67802;50.846;7.958;2023-05-10T08:25:07;2.35;;;1.20;;
78508;SDS011;67802;50.846;7.958;2023-05-10T08:27:32;3.97;;;1.30;;
78508;SDS011;67802;50.846;7.958;2023-05-10T08:29:58;2.65;;;1.20;;
78508;SDS011;67802;50.846;7.958;2023-05-10T08:32:23;3.30;;;1.33;;
78508;SDS011;67802;50.846;7.958;2023-05-10T08:34:48;3.28;;;1.40;;
78508;SDS011;67802;50.846;7.958;2023-05-10T08:37:13;2.78;;;1.30;;
78508;SDS011;67802;50.846;7.958;2023-05-10T08:39:39;3.33;;;1.45;;
78508;SDS011;67802;50.846;7.958;2023-05-10T08:42:05;2.95;;;1.20;;
78508;SDS011;67802;50.846;7.958;2023-05-10T08:44:32;2.67;;;1.25;;
78508;SDS011;67802;50.846;7.958;2023-05-10T08:46:59;2.80;;;1.23;;
78508;SDS011;67802;50.846;7.958;2023-05-10T08:49:29;3.45;;;1.30;;
78508;SDS011;67802;50.846;7.958;2023-05-10T08:51:56;3.67;;;1.40;;
78508;SDS011;67802;50.846;7.958;2023-05-10T08:54:22;3.55;;;1.70;;
78508;SDS011;67802;50.846;7.958;2023-05-10T08:56:48;3.35;;;1.48;;
78508;SDS011;67802;50.846;7.958;2023-05-10T08:59:13;3.45;;;1.38;;
78508;SDS011;67802;50.846;7.958;2023-05-10T09:01:40;2.97;;;1.27;;
78508;SDS011;67802;50.846;7.958;2023-05-10T09:04:06;2.95;;;1.30;;
78508;SDS011;67802;50.846;7.958;2023-05-10T09:06:32;3.30;;;1.50;;
78508;SDS011;67802;50.846;7.958;2023-05-10T09:08:58;3.72;;;1.55;;
78508;SDS011;67802;50.846;7.958;2023-05-10T09:11:23;3.20;;;1.40;;
78508;SDS011;67802;50.846;7.958;2023-05-10T09:13:49;3.60;;;1.30;;
78508;SDS011;67802;50.846;7.958;2023-05-10T09:16:16;2.90;;;1.42;;
78508;SDS011;67802;50.846;7.958;2023-05-10T09:18:41;2.87;;;1.40;;
78508;SDS011;67802;50.846;7.958;2023-05-10T09:21:06;3.87;;;1.50;;
78508;SDS011;67802;50.846;7.958;2023-05-10T09:23:33;3.30;;;1.58;;
78508;SDS011;67802;50.846;7.958;2023-05-10T09:26:02;3.28;;;1.50;;
78508;SDS011;67802;50.846;7.958;2023-05-10T09:28:49;3.22;;;1.60;;
78508;SDS011;67802;50.846;7.958;2023-05-10T09:31:20;2.78;;;1.30;;
78508;SDS011;67802;50.846;7.958;2023-05-10T09:33:46;3.88;;;1.70;;
78508;SDS011;67802;50.846;7.958;2023-05-10T09:36:12;3.70;;;1.63;;
78508;SDS011;67802;50.846;7.958;2023-05-10T09:38:48;3.33;;;1.40;;
78508;SDS011;67802;50.846;7.958;2023-05-10T09:41:17;3.40;;;1.60;;
78508;SDS011;67802;50.846;7.958;2023-05-10T09:43:45;3.72;;;1.52;;
78508;SDS011;67802;50.846;7.958;2023-05-10T09:46:10;3.78;;;1.60;;
78508;SDS011;67802;50.846;7.958;2023-05-10T09:48:46;3.45;;;1.65;;
78508;SDS011;67802;50.846;7.958;2023-05-10T09:51:24;3.90;;;1.55;;
78508;SDS011;67802;50.846;7.958;2023-05-10T09:54:10;4.28;;;1.63;;
78508;SDS011;67802;50.846;7.958;2023-05-10T09:56:37;3.45;;;1.75;;
78508;SDS011;67802;50.846;7.958;2023-05-10T09:59:05;5.20;;;1.90;;
78508;SDS011;67802;50.846;7.958;2023-05-10T10:01:32;4.88;;;1.80;;
78508;SDS011;67802;50.846;7.958;2023-05-10T10:03:58;4.03;;;1.92;;
78508;SDS011;67802;50.846;7.958;2023-05-10T10:06:23;3.60;;;1.70;;
78508;SDS011;67802;50.846;7.958;2023-05-10T10:08:50;3.83;;;1.65;;
78508;SDS011;67802;50.846;7.958;2023-05-10T10:11:16;3.33;;;1.60;;
78508;SDS011;67802;50.846;7.958;2023-05-10T10:13:41;3.75;;;1.70;;
78508;SDS011;67802;50.846;7.958;2023-05-10T10:16:07;4.15;;;1.90;;
78508;SDS011;67802;50.846;7.958;2023-05-10T10:18:33;3.95;;;1.90;;
78508;SDS011;67802;50.846;7.958;2023-05-10T10:21:03;6.30;;;2.00;;
78508;SDS011;67802;50.846;7.958;2023-05-10T10:23:30;4.30;;;1.85;;
78508;SDS011;67802;50.846;7.958;2023-05-10T10:25:56;4.60;;;2.13;;
78508;SDS011;67802;50.846;7.958;2023-05-10T10:28:24;5.47;;;2.30;;
78508;SDS011;67802;50.846;7.958;2023-05-10T10:36:33;4.97;;;2.25;;
78508;SDS011;67802;50.846;7.958;2023-05-10T10:39:08;5.00;;;2.00;;
78508;SDS011;67802;50.846;7.958;2023-05-10T10:41:56;4.00;;;2.13;;
78508;SDS011;67802;50.846;7.958;2023-05-10T10:52:24;6.05;;;2.42;;
78508;SDS011;67802;50.846;7.958;2023-05-10T10:57:22;8.30;;;2.60;;
78508;SDS011;67802;50.846;7.958;2023-05-10T10:59:47;5.95;;;1.92;;
78508;SDS011;67802;50.846;7.958;2023-05-10T11:07:59;4.78;;;2.38;;
78508;SDS011;67802;50.846;7.958;2023-05-10T11:10:31;6.68;;;2.25;;
78508;SDS011;67802;50.846;7.958;2023-05-10T11:13:01;5.00;;;2.63;;
78508;SDS011;67802;50.846;7.958;2023-05-10T11:18:47;5.30;;;2.20;;
78508;SDS011;67802;50.846;7.958;2023-05-10T11:21:04;5.63;;;2.20;;
78508;SDS011;67802;50.846;7.958;2023-05-10T11:23:47;5.40;;;2.10;;
78508;SDS011;67802;50.846;7.958;2023-05-10T11:26:21;4.65;;;2.10;;
78508;SDS011;67802;50.846;7.958;2023-05-10T11:28:50;6.40;;;2.03;;
78508;SDS011;67802;50.846;7.958;2023-05-10T11:31:17;5.28;;;2.10;;
78508;SDS011;67802;50.846;7.958;2023-05-10T11:33:43;5.00;;;2.05;;
78508;SDS011;67802;50.846;7.958;2023-05-10T11:36:14;6.30;;;2.20;;
78508;SDS011;67802;50.846;7.958;2023-05-10T11:38:50;5.45;;;2.30;;
78508;SDS011;67802;50.846;7.958;2023-05-10T11:41:17;5.15;;;2.10;;
78508;SDS011;67802;50.846;7.958;2023-05-10T11:43:44;5.47;;;2.03;;
78508;SDS011;67802;50.846;7.958;2023-05-10T11:46:13;5.18;;;1.85;;
78508;SDS011;67802;50.846;7.958;2023-05-10T11:48:39;4.32;;;1.92;;
78508;SDS011;67802;50.846;7.958;2023-05-10T11:51:05;5.47;;;1.75;;
78508;SDS011;67802;50.846;7.958;2023-05-10T11:53:32;4.32;;;1.83;;
78508;SDS011;67802;50.846;7.958;2023-05-10T11:56:05;5.13;;;2.17;;
78508;SDS011;67802;50.846;7.958;2023-05-10T11:58:35;6.18;;;1.77;;
78508;SDS011;67802;50.846;7.958;2023-05-10T12:01:01;3.60;;;1.70;;
78508;SDS011;67802;50.846;7.958;2023-05-10T12:03:28;5.35;;;1.83;;
78508;SDS011;67802;50.846;7.958;2023-05-10T12:05:54;4.20;;;1.70;;
78508;SDS011;67802;50.846;7.958;2023-05-10T12:08:21;4.32;;;1.77;;
78508;SDS011;67802;50.846;7.958;2023-05-10T12:10:48;4.43;;;1.83;;
78508;SDS011;67802;50.846;7.958;2023-05-10T12:13:13;6.80;;;1.85;;
78508;SDS011;67802;50.846;7.958;2023-05-10T12:15:40;4.15;;;1.83;;
78508;SDS011;67802;50.846;7.958;2023-05-10T12:18:07;4.18;;;1.67;;
78508;SDS011;67802;50.846;7.958;2023-05-10T12:20:35;3.70;;;1.65;;
78508;SDS011;67802;50.846;7.958;2023-05-10T12:23:01;4.15;;;1.80;;
78508;SDS011;67802;50.846;7.958;2023-05-10T12:25:31;5.40;;;1.63;;
78508;SDS011;67802;50.846;7.958;2023-05-10T12:27:59;4.25;;;1.80;;
78508;SDS011;67802;50.846;7.958;2023-05-10T12:30:29;5.20;;;1.98;;
78508;SDS011;67802;50.846;7.958;2023-05-10T12:33:02;5.82;;;1.80;;
78508;SDS011;67802;50.846;7.958;2023-05-10T12:35:32;6.25;;;1.65;;
78508;SDS011;67802;50.846;7.958;2023-05-10T12:37:58;8.93;;;1.95;;
78508;SDS011;67802;50.846;7.958;2023-05-10T12:40:24;6.20;;;2.10;;
78508;SDS011;67802;50.846;7.958;2023-05-10T12:42:50;9.25;;;2.08;;
78508;SDS011;67802;50.846;7.958;2023-05-10T12:45:16;6.72;;;1.42;;
78508;SDS011;67802;50.846;7.958;2023-05-10T12:47:43;4.97;;;1.83;;
78508;SDS011;67802;50.846;7.958;2023-05-10T12:50:08;4.50;;;1.65;;
78508;SDS011;67802;50.846;7.958;2023-05-10T12:52:34;7.72;;;1.73;;
78508;SDS011;67802;50.846;7.958;2023-05-10T12:54:59;4.72;;;1.50;;
78508;SDS011;67802;50.846;7.958;2023-05-10T12:57:25;6.43;;;1.77;;
78508;SDS011;67802;50.846;7.958;2023-05-10T12:59:50;5.47;;;1.80;;
78508;SDS011;67802;50.846;7.958;2023-05-10T13:02:16;5.68;;;1.45;;
78508;SDS011;67802;50.846;7.958;2023-05-10T13:04:45;6.00;;;2.00;;
78508;SDS011;67802;50.846;7.958;2023-05-10T13:07:11;7.30;;;1.90;;
78508;SDS011;67802;50.846;7.958;2023-05-10T13:09:37;4.97;;;1.50;;
78508;SDS011;67802;50.846;7.958;2023-05-10T13:12:02;6.35;;;1.98;;
78508;SDS011;67802;50.846;7.958;2023-05-10T13:14:28;3.90;;;1.60;;
78508;SDS011;67802;50.846;7.958;2023-05-10T13:16:54;3.50;;;1.40;;
78508;SDS011;67802;50.846;7.958;2023-05-10T13:19:20;4.50;;;1.70;;
78508;SDS011;67802;50.846;7.958;2023-05-10T13:21:45;3.47;;;1.58;;
78508;SDS011;67802;50.846;7.958;2023-05-10T13:24:10;4.72;;;1.38;;
78508;SDS011;67802;50.846;7.958;2023-05-10T13:26:38;3.60;;;1.60;;
78508;SDS011;67802;50.846;7.958;2023-05-10T13:29:07;4.80;;;1.38;;
78508;SDS011;67802;50.846;7.958;2023-05-10T13:31:33;4.65;;;1.60;;
78508;SDS011;67802;50.846;7.958;2023-05-10T13:33:58;5.25;;;1.48;;
78508;SDS011;67802;50.846;7.958;2023-05-10T13:36:24;3.30;;;1.30;;
78508;SDS011;67802;50.846;7.958;2023-05-10T13:38:49;3.53;;;1.33;;
78508;SDS011;67802;50.846;7.958;2023-05-10T13:41:15;3.30;;;1.40;;
78508;SDS011;67802;50.846;7.958;2023-05-10T13:43:40;4.50;;;1.50;;
78508;SDS011;67802;50.846;7.958;2023-05-10T13:46:05;5.93;;;1.60;;
78508;SDS011;67802;50.846;7.958;2023-05-10T13:48:31;6.45;;;1.50;;
78508;SDS011;67802;50.846;7.958;2023-05-10T13:50:56;2.60;;;1.20;;
78508;SDS011;67802;50.846;7.958;2023-05-10T13:53:21;3.40;;;1.50;;
78508;SDS011;67802;50.846;7.958;2023-05-10T13:55:47;6.35;;;1.55;;
78508;SDS011;67802;50.846;7.958;2023-05-10T13:58:12;6.07;;;1.65;;
78508;SDS011;67802;50.846;7.958;2023-05-10T14:00:37;4.28;;;1.58;;
78508;SDS011;67802;50.846;7.958;2023-05-10T14:03:03;4.83;;;1.60;;
78508;SDS011;67802;50.846;7.958;2023-05-10T14:05:29;5.30;;;1.42;;
78508;SDS011;67802;50.846;7.958;2023-05-10T14:07:55;4.65;;;1.67;;
78508;SDS011;67802;50.846;7.958;2023-05-10T14:10:20;4.95;;;1.50;;
78508;SDS011;67802;50.846;7.958;2023-05-10T14:12:46;6.65;;;1.52;;
78508;SDS011;67802;50.846;7.958;2023-05-10T14:15:11;4.63;;;1.50;;
78508;SDS011;67802;50.846;7.958;2023-05-10T14:17:36;4.63;;;1.70;;
78508;SDS011;67802;50.846;7.958;2023-05-10T14:20:02;4.18;;;1.30;;
78508;SDS011;67802;50.846;7.958;2023-05-10T14:22:28;4.13;;;1.90;;
78508;SDS011;67802;50.846;7.958;2023-05-10T14:24:54;4.78;;;1.60;;
78508;SDS011;67802;50.846;7.958;2023-05-10T14:27:19;5.22;;;2.03;;
78508;SDS011;67802;50.846;7.958;2023-05-10T14:29:44;4.10;;;1.50;;
78508;SDS011;67802;50.846;7.958;2023-05-10T14:32:10;3.38;;;1.40;;
78508;SDS011;67802;50.846;7.958;2023-05-10T14:34:35;5.18;;;1.40;;
78508;SDS011;67802;50.846;7.958;2023-05-10T14:37:00;4.25;;;1.60;;
78508;SDS011;67802;50.846;7.958;2023-05-10T14:39:26;5.10;;;1.40;;
78508;SDS011;67802;50.846;7.958;2023-05-10T14:41:54;4.20;;;1.40;;
78508;SDS011;67802;50.846;7.958;2023-05-10T14:44:19;3.72;;;1.42;;
78508;SDS011;67802;50.846;7.958;2023-05-10T14:46:45;3.70;;;1.60;;
78508;SDS011;67802;50.846;7.958;2023-05-10T14:49:10;4.57;;;1.83;;
78508;SDS011;67802;50.846;7.958;2023-05-10T14:51:35;3.27;;;1.40;;
78508;SDS011;67802;50.846;7.958;2023-05-10T14:54:01;5.05;;;1.70;;
78508;SDS011;67802;50.846;7.958;2023-05-10T14:56:27;5.25;;;1.45;;
78508;SDS011;67802;50.846;7.958;2023-05-10T14:58:52;8.05;;;2.17;;
78508;SDS011;67802;50.846;7.958;2023-05-10T15:01:18;4.45;;;1.95;;
78508;SDS011;67802;50.846;7.958;2023-05-10T15:03:43;4.97;;;2.13;;
78508;SDS011;67802;50.846;7.958;2023-05-10T15:06:09;4.67;;;2.00;;
78508;SDS011;67802;50.846;7.958;2023-05-10T15:08:34;5.40;;;2.10;;
78508;SDS011;67802;50.846;7.958;2023-05-10T15:10:59;4.97;;;1.63;;
78508;SDS011;67802;50.846;7.958;2023-05-10T15:13:25;4.72;;;1.67;;
78508;SDS011;67802;50.846;7.958;2023-05-10T15:15:50;4.00;;;1.70;;
78508;SDS011;67802;50.846;7.958;2023-05-10T15:18:16;5.40;;;2.00;;
78508;SDS011;67802;50.846;7.958;2023-05-10T15:20:41;3.83;;;1.73;;
78508;SDS011;67802;50.846;7.958;2023-05-10T15:23:06;5.93;;;1.70;;
78508;SDS011;67802;50.846;7.958;2023-05-10T15:25:32;3.80;;;1.60;;
78508;SDS011;67802;50.846;7.958;2023-05-10T15:27:59;5.00;;;1.45;;
78508;SDS011;67802;50.846;7.958;2023-05-10T15:30:26;4.32;;;1.80;;
78508;SDS011;67802;50.846;7.958;2023-05-10T15:32:51;4.85;;;1.85;;